createdAt,value
2023-04-20T00:00:46.469Z,8.72
2023-04-20T00:03:13.366Z,8.58
2023-04-20T00:05:40.850Z,8.36
2023-04-20T00:08:07.484Z,8.29
2023-04-20T00:10:34.652Z,8.29
2023-04-20T00:13:01.288Z,8.31
2023-04-20T00:15:27.932Z,8.61
2023-04-20T00:17:54.584Z,8.71
2023-04-20T00:20:21.293Z,8.61
2023-04-20T00:22:48.049Z,8.60
2023-04-20T00:25:14.670Z,8.50
2023-04-20T00:27:41.306Z,8.61
2023-04-20T00:30:09.838Z,8.76
2023-04-20T00:32:36.538Z,8.67
2023-04-20T00:35:03.401Z,8.63
2023-04-20T00:37:30.010Z,8.65
2023-04-20T00:39:57.788Z,8.53
2023-04-20T00:42:24.428Z,8.30
2023-04-20T00:44:51.072Z,8.35
2023-04-20T00:47:17.787Z,8.12
2023-04-20T00:49:44.681Z,8.06
2023-04-20T00:52:11.341Z,8.07
2023-04-20T00:54:38.149Z,8.00
2023-04-20T00:57:05.207Z,8.09
2023-04-20T00:59:32.291Z,8.22
2023-04-20T01:01:59.403Z,8.23
2023-04-20T01:04:26.528Z,8.10
2023-04-20T01:06:53.389Z,8.09
2023-04-20T01:09:20.860Z,8.03
2023-04-20T01:11:47.633Z,8.14
2023-04-20T01:14:14.248Z,8.19
2023-04-20T01:16:40.889Z,8.13
2023-04-20T01:19:07.782Z,8.13
2023-04-20T01:21:34.443Z,8.09
2023-04-20T01:24:01.158Z,8.06
2023-04-20T01:26:27.885Z,8.08
2023-04-20T01:28:54.525Z,8.16
2023-04-20T01:31:21.261Z,8.16
2023-04-20T01:33:48.583Z,8.16
2023-04-20T01:36:15.569Z,8.33
2023-04-20T01:38:42.304Z,8.03
2023-04-20T01:41:10.209Z,7.99
2023-04-20T01:43:38.837Z,7.88
2023-04-20T01:46:08.502Z,7.92
2023-04-20T01:48:35.384Z,7.73
2023-04-20T01:51:02.151Z,7.76
2023-04-20T01:53:28.837Z,7.80
2023-04-20T01:55:55.642Z,8.02
2023-04-20T01:58:22.354Z,8.14
2023-04-20T02:00:49.234Z,8.12
2023-04-20T02:03:16.026Z,7.89
2023-04-20T02:05:42.781Z,8.08
2023-04-20T02:08:09.538Z,7.97
2023-04-20T02:10:36.140Z,7.53
2023-04-20T02:13:02.779Z,7.47
2023-04-20T02:15:29.696Z,7.43
2023-04-20T02:17:56.411Z,7.68
2023-04-20T02:20:23.134Z,7.00
2023-04-20T02:22:49.801Z,7.08
2023-04-20T02:25:17.797Z,7.46
2023-04-20T02:27:44.566Z,7.31
2023-04-20T02:30:11.645Z,7.41
2023-04-20T02:32:38.743Z,7.29
2023-04-20T02:35:05.743Z,6.77
2023-04-20T02:37:32.415Z,6.93
2023-04-20T02:39:59.018Z,7.27
2023-04-20T02:42:25.760Z,7.36
2023-04-20T02:44:52.497Z,7.48
2023-04-20T02:47:19.172Z,7.41
2023-04-20T02:49:45.850Z,7.45
2023-04-20T02:52:12.687Z,7.35
2023-04-20T02:54:39.379Z,7.55
2023-04-20T02:57:06.084Z,7.46
2023-04-20T02:59:32.820Z,7.32
2023-04-20T03:01:59.830Z,7.23
2023-04-20T03:04:26.707Z,7.39
2023-04-20T03:06:53.416Z,7.21
2023-04-20T03:09:20.043Z,7.32
2023-04-20T03:11:46.650Z,7.23
2023-04-20T03:14:13.272Z,7.17
2023-04-20T03:16:40.008Z,7.03
2023-04-20T03:19:06.691Z,7.24
2023-04-20T03:21:35.601Z,7.35
2023-04-20T03:24:02.479Z,7.14
2023-04-20T03:26:29.222Z,6.89
2023-04-20T03:28:55.889Z,6.88
2023-04-20T03:31:22.667Z,6.91
2023-04-20T03:33:49.360Z,7.00
2023-04-20T03:36:16.025Z,6.93
2023-04-20T03:38:42.723Z,7.08
2023-04-20T03:41:09.334Z,7.19
2023-04-20T03:43:36.206Z,7.21
2023-04-20T03:46:02.838Z,7.23
2023-04-20T03:48:29.527Z,7.36
2023-04-20T03:50:56.221Z,7.25
2023-04-20T03:53:22.943Z,7.28
2023-04-20T03:55:49.613Z,7.17
2023-04-20T03:58:16.246Z,7.13
2023-04-20T04:00:42.968Z,7.28
2023-04-20T04:03:09.889Z,7.20
2023-04-20T04:05:36.690Z,7.21
2023-04-20T04:08:03.311Z,7.19
2023-04-20T04:10:30.165Z,7.26
2023-04-20T04:12:56.751Z,6.94
2023-04-20T04:15:23.441Z,7.06
2023-04-20T04:17:50.240Z,7.05
2023-04-20T04:20:17.091Z,6.94
2023-04-20T04:22:43.787Z,6.93
2023-04-20T04:25:10.634Z,6.88
2023-04-20T04:27:37.283Z,6.83
2023-04-20T04:30:04.970Z,6.97
2023-04-20T04:32:31.604Z,6.89
2023-04-20T04:34:58.306Z,6.75
2023-04-20T04:37:24.983Z,6.85
2023-04-20T04:39:51.650Z,6.70
2023-04-20T04:42:18.289Z,6.68
2023-04-20T04:44:44.951Z,6.75
2023-04-20T04:47:11.812Z,6.93
2023-04-20T04:49:38.541Z,6.69
2023-04-20T04:52:05.170Z,6.72
2023-04-20T04:54:32.010Z,6.81
2023-04-20T04:56:58.648Z,6.99
2023-04-20T04:59:25.288Z,6.98
2023-04-20T05:01:52.035Z,6.92
2023-04-20T05:04:19.078Z,7.05
2023-04-20T05:06:45.859Z,7.28
2023-04-20T05:09:12.516Z,7.29
2023-04-20T05:11:39.236Z,7.31
2023-04-20T05:14:05.934Z,7.29
2023-04-20T05:16:32.627Z,7.24
2023-04-20T05:18:59.260Z,7.38
2023-04-20T05:21:26.105Z,7.07
2023-04-20T05:23:52.849Z,7.22
2023-04-20T05:26:19.615Z,7.19
2023-04-20T05:28:46.278Z,7.13
2023-04-20T05:31:13.007Z,7.25
2023-04-20T05:33:39.907Z,7.34
2023-04-20T05:36:09.423Z,7.31
2023-04-20T05:38:36.139Z,7.30
2023-04-20T05:41:02.845Z,7.40
2023-04-20T05:43:29.518Z,7.48
2023-04-20T05:45:56.198Z,7.56
2023-04-20T05:48:22.887Z,7.65
2023-04-20T05:50:49.546Z,7.69
2023-04-20T05:53:16.310Z,7.80
2023-04-20T05:55:43.007Z,7.77
2023-04-20T05:58:09.875Z,8.00
2023-04-20T06:00:36.526Z,8.11
2023-04-20T06:03:03.779Z,7.97
2023-04-20T06:05:30.917Z,8.11
2023-04-20T06:07:57.628Z,8.34
2023-04-20T06:10:24.506Z,8.09
2023-04-20T06:12:51.290Z,8.28
2023-04-20T06:15:17.955Z,8.59
2023-04-20T06:17:44.828Z,8.51
2023-04-20T06:20:11.839Z,8.51
2023-04-20T06:22:43.371Z,8.68
2023-04-20T06:25:10.474Z,8.65
2023-04-20T06:27:37.495Z,8.72
2023-04-20T06:30:04.637Z,8.82
2023-04-20T06:32:31.400Z,8.96
2023-04-20T06:34:58.161Z,8.92
2023-04-20T06:37:24.868Z,9.01
2023-04-20T06:39:54.728Z,9.20
2023-04-20T06:42:22.356Z,9.18
2023-04-20T06:44:49.105Z,9.44
2023-04-20T06:47:15.775Z,9.67
2023-04-20T06:49:42.538Z,9.73
2023-04-20T06:52:09.552Z,9.98
2023-04-20T06:54:39.382Z,10.05
2023-04-20T06:57:06.316Z,10.08
2023-04-20T06:59:33.082Z,10.07
2023-04-20T07:02:00.015Z,10.00
2023-04-20T07:04:27.055Z,10.18
2023-04-20T07:06:54.260Z,10.22
2023-04-20T07:09:21.434Z,10.30
2023-04-20T07:11:48.124Z,10.44
2023-04-20T07:14:14.859Z,10.61
2023-04-20T07:16:41.601Z,10.87
2023-04-20T07:19:08.337Z,11.14
2023-04-20T07:21:34.959Z,11.39
2023-04-20T07:24:01.956Z,11.25
2023-04-20T07:26:28.599Z,11.58
2023-04-20T07:28:55.233Z,11.54
2023-04-20T07:31:22.005Z,11.40
2023-04-20T07:33:48.963Z,11.48
2023-04-20T07:36:15.696Z,11.56
2023-04-20T07:38:42.350Z,11.95
2023-04-20T07:41:12.961Z,11.77
2023-04-20T07:43:40.343Z,11.83
2023-04-20T07:46:07.755Z,12.08
2023-04-20T07:48:34.962Z,12.22
2023-04-20T07:51:01.890Z,12.18
2023-04-20T07:53:31.491Z,12.27
2023-04-20T07:55:58.285Z,12.13
2023-04-20T07:58:24.981Z,12.20
2023-04-20T08:00:51.665Z,12.53
2023-04-20T08:03:18.513Z,12.33
2023-04-20T08:05:46.015Z,12.88
2023-04-20T08:08:12.762Z,12.72
2023-04-20T08:10:39.346Z,13.06
2023-04-20T08:13:06.100Z,12.88
2023-04-20T08:15:32.775Z,12.71
2023-04-20T08:17:59.431Z,13.21
2023-04-20T08:20:26.226Z,12.98
2023-04-20T08:22:52.974Z,13.10
2023-04-20T08:25:19.927Z,13.51
2023-04-20T08:27:46.636Z,13.67
2023-04-20T08:30:13.518Z,13.77
2023-04-20T08:32:40.221Z,13.99
2023-04-20T08:35:07.237Z,13.90
2023-04-20T08:37:34.698Z,13.77
2023-04-20T08:40:01.398Z,13.79
2023-04-20T08:42:28.075Z,13.78
2023-04-20T08:44:54.943Z,13.64
2023-04-20T08:47:21.729Z,13.62
2023-04-20T08:49:53.428Z,13.94
2023-04-20T08:52:20.183Z,14.32
2023-04-20T08:54:56.129Z,14.24
2023-04-20T08:57:24.715Z,14.83
2023-04-20T08:59:51.369Z,14.67
2023-04-20T09:02:18.059Z,14.56
2023-04-20T09:04:45.221Z,14.89
2023-04-20T09:07:20.210Z,14.82
2023-04-20T09:09:57.796Z,14.83
2023-04-20T09:12:24.640Z,14.52
2023-04-20T09:14:52.300Z,14.23
2023-04-20T09:17:35.530Z,14.40
2023-04-20T09:20:03.118Z,14.43
2023-04-20T09:22:35.431Z,15.00
2023-04-20T09:25:17.668Z,15.17
2023-04-20T09:27:58.072Z,15.51
2023-04-20T09:30:25.165Z,15.63
2023-04-20T09:33:02.388Z,15.61
2023-04-20T09:35:29.108Z,15.30
2023-04-20T09:37:55.749Z,15.07
2023-04-20T09:40:24.853Z,15.47
2023-04-20T09:42:53.431Z,15.27
2023-04-20T09:45:20.391Z,15.58
2023-04-20T09:47:47.740Z,15.33
2023-04-20T09:50:26.687Z,15.34
2023-04-20T09:52:56.816Z,15.08
2023-04-20T09:55:26.658Z,14.85
2023-04-20T09:57:54.895Z,14.89
2023-04-20T10:00:22.161Z,14.92
2023-04-20T10:02:49.418Z,14.89
2023-04-20T10:05:16.196Z,15.12
2023-04-20T10:07:43.079Z,15.43
2023-04-20T10:10:16.099Z,15.27
2023-04-20T10:12:54.189Z,15.51
2023-04-20T10:15:21.457Z,15.60
2023-04-20T10:17:48.506Z,15.52
2023-04-20T10:20:26.522Z,15.54
2023-04-20T10:22:54.646Z,15.54
2023-04-20T10:25:23.806Z,15.48
2023-04-20T10:28:04.617Z,15.73
2023-04-20T10:30:33.015Z,16.17
2023-04-20T10:33:13.471Z,15.40
2023-04-20T10:35:49.210Z,16.35
2023-04-20T10:38:27.513Z,16.52
2023-04-20T10:40:54.143Z,16.47
2023-04-20T10:43:22.417Z,16.80
2023-04-20T10:45:50.278Z,16.70
2023-04-20T10:48:18.218Z,16.89
2023-04-20T10:50:45.233Z,16.89
2023-04-20T10:53:21.112Z,16.11
2023-04-20T10:55:48.219Z,16.66
2023-04-20T10:58:22.616Z,17.08
2023-04-20T11:01:03.434Z,17.16
2023-04-20T11:03:32.074Z,16.84
2023-04-20T11:05:59.141Z,16.69
2023-04-20T11:08:36.043Z,16.58
2023-04-20T11:11:02.856Z,16.60
2023-04-20T11:13:29.782Z,16.70
2023-04-20T11:15:56.572Z,16.55
2023-04-20T11:18:23.300Z,16.94
2023-04-20T11:20:59.528Z,17.50
2023-04-20T11:23:37.765Z,17.31
2023-04-20T11:26:04.494Z,17.64
2023-04-20T11:28:31.389Z,17.80
2023-04-20T11:30:58.032Z,17.71
2023-04-20T11:33:28.598Z,17.55
2023-04-20T11:35:57.197Z,17.53
2023-04-20T11:38:34.831Z,16.69
2023-04-20T11:41:01.625Z,16.75
2023-04-20T11:43:28.253Z,17.04
2023-04-20T11:45:55.013Z,16.84
2023-04-20T11:48:21.721Z,16.96
2023-04-20T11:50:48.341Z,17.20
2023-04-20T11:53:15.020Z,16.83
2023-04-20T11:55:41.693Z,16.59
2023-04-20T11:58:08.865Z,16.55
2023-04-20T12:00:35.531Z,16.65
2023-04-20T12:03:02.498Z,16.81
2023-04-20T12:05:29.735Z,17.24
2023-04-20T12:07:56.484Z,17.44
2023-04-20T12:10:23.519Z,17.21
2023-04-20T12:12:50.150Z,17.50
2023-04-20T12:15:17.018Z,17.06
2023-04-20T12:17:43.680Z,17.66
2023-04-20T12:20:10.628Z,17.94
2023-04-20T12:22:37.630Z,17.98
2023-04-20T12:25:05.624Z,17.66
2023-04-20T12:27:32.295Z,17.63
2023-04-20T12:29:58.911Z,17.59
2023-04-20T12:32:25.547Z,17.21
2023-04-20T12:34:52.457Z,17.37
2023-04-20T12:37:19.102Z,17.08
2023-04-20T12:39:45.848Z,17.18
2023-04-20T12:42:12.625Z,17.25
2023-04-20T12:44:39.374Z,17.67
2023-04-20T12:47:06.097Z,18.25
2023-04-20T12:49:33.845Z,17.94
2023-04-20T12:52:00.790Z,17.75
2023-04-20T12:54:27.412Z,17.71
2023-04-20T12:56:54.010Z,17.73
2023-04-20T12:59:20.782Z,17.49
2023-04-20T13:01:47.462Z,17.99
2023-04-20T13:04:14.452Z,17.97
2023-04-20T13:06:41.634Z,18.40
2023-04-20T13:09:08.285Z,18.98
2023-04-20T13:11:34.989Z,19.16
2023-04-20T13:14:01.662Z,19.22
2023-04-20T13:16:28.428Z,19.51
2023-04-20T13:18:55.173Z,18.82
2023-04-20T13:21:21.778Z,17.99
2023-04-20T13:23:48.399Z,18.13
2023-04-20T13:26:15.061Z,18.30
2023-04-20T13:28:41.673Z,18.24
2023-04-20T13:31:08.702Z,18.35
2023-04-20T13:33:35.341Z,17.72
2023-04-20T13:36:02.066Z,18.03
2023-04-20T13:38:28.906Z,17.87
2023-04-20T13:40:55.686Z,18.50
2023-04-20T13:43:22.298Z,18.22
2023-04-20T13:45:49.099Z,18.02
2023-04-20T13:48:15.763Z,17.45
2023-04-20T13:50:42.398Z,17.35
2023-04-20T13:53:09.112Z,17.47
2023-04-20T13:55:35.916Z,17.74
2023-04-20T13:58:02.585Z,17.97
2023-04-20T14:00:29.251Z,18.26
2023-04-20T14:02:56.021Z,18.34
2023-04-20T14:05:22.765Z,18.29
2023-04-20T14:07:49.441Z,18.28
2023-04-20T14:10:16.052Z,17.88
2023-04-20T14:12:42.770Z,18.45
2023-04-20T14:15:09.828Z,18.50
2023-04-20T14:17:36.453Z,18.25
2023-04-20T14:20:03.253Z,18.01
2023-04-20T14:22:29.924Z,17.84
2023-04-20T14:24:56.650Z,18.25
2023-04-20T14:27:23.313Z,18.34
2023-04-20T14:29:50.393Z,18.58
2023-04-20T14:32:17.144Z,18.64
2023-04-20T14:34:43.758Z,18.90
2023-04-20T14:37:10.599Z,19.33
2023-04-20T14:39:37.229Z,18.43
2023-04-20T14:42:03.842Z,18.93
2023-04-20T14:44:30.579Z,19.14
2023-04-20T14:46:57.418Z,18.61
2023-04-20T14:49:24.078Z,18.54
2023-04-20T14:51:51.052Z,19.08
2023-04-20T14:54:17.923Z,18.99
2023-04-20T14:56:44.753Z,19.04
2023-04-20T14:59:11.440Z,18.82
2023-04-20T15:01:38.880Z,18.75
2023-04-20T15:04:10.259Z,19.68
2023-04-20T15:06:37.001Z,19.83
2023-04-20T15:09:03.744Z,20.22
2023-04-20T15:11:30.475Z,20.11
2023-04-20T15:13:59.204Z,20.09
2023-04-20T15:16:25.837Z,20.26
2023-04-20T15:18:52.500Z,20.48
2023-04-20T15:21:23.250Z,19.93
2023-04-20T15:23:50.356Z,19.90
2023-04-20T15:26:16.984Z,19.98
2023-04-20T15:28:43.548Z,19.33
2023-04-20T15:31:10.242Z,19.26
2023-04-20T15:33:36.867Z,19.39
2023-04-20T15:36:03.742Z,19.01
2023-04-20T15:38:30.454Z,19.14
2023-04-20T15:40:57.130Z,19.10
2023-04-20T15:43:23.734Z,18.92
2023-04-20T15:45:50.414Z,18.20
2023-04-20T15:48:17.718Z,17.92
2023-04-20T15:50:44.727Z,17.25
2023-04-20T15:53:11.341Z,17.23
2023-04-20T15:55:38.961Z,16.95
2023-04-20T15:58:05.680Z,17.11
2023-04-20T16:00:32.333Z,17.07
2023-04-20T16:02:59.209Z,16.81
2023-04-20T16:05:25.928Z,16.34
2023-04-20T16:07:52.600Z,15.60
2023-04-20T16:10:19.355Z,15.88
2023-04-20T16:12:46.399Z,15.73
2023-04-20T16:15:13.141Z,15.89
2023-04-20T16:17:39.895Z,16.36
2023-04-20T16:20:07.295Z,16.56
2023-04-20T16:22:34.000Z,16.35
2023-04-20T16:25:00.650Z,16.31
2023-04-20T16:27:27.287Z,16.38
2023-04-20T16:29:53.936Z,16.83
2023-04-20T16:32:20.849Z,16.89
2023-04-20T16:34:48.055Z,17.31
2023-04-20T16:37:14.706Z,17.14
2023-04-20T16:39:41.374Z,16.84
2023-04-20T16:42:07.974Z,16.74
2023-04-20T16:44:34.749Z,16.35
2023-04-20T16:47:01.628Z,16.53
2023-04-20T16:49:28.604Z,16.48
2023-04-20T16:51:55.225Z,16.84
2023-04-20T16:54:21.913Z,16.65
2023-04-20T16:56:48.606Z,16.71
2023-04-20T16:59:15.251Z,16.70
2023-04-20T17:01:41.951Z,16.32
2023-04-20T17:04:08.857Z,16.26
2023-04-20T17:06:35.588Z,16.49
2023-04-20T17:09:02.184Z,15.93
2023-04-20T17:11:28.930Z,15.83
2023-04-20T17:13:55.571Z,15.89
2023-04-20T17:16:22.381Z,16.15
2023-04-20T17:18:49.010Z,15.92
2023-04-20T17:21:15.618Z,15.75
2023-04-20T17:23:42.384Z,15.64
2023-04-20T17:26:09.197Z,15.61
2023-04-20T17:28:36.002Z,15.61
2023-04-20T17:31:02.663Z,15.56
2023-04-20T17:33:29.413Z,15.64
2023-04-20T17:35:56.690Z,15.54
2023-04-20T17:38:23.962Z,15.49
2023-04-20T17:40:50.602Z,15.44
2023-04-20T17:43:17.369Z,15.28
2023-04-20T17:45:44.029Z,15.22
2023-04-20T17:48:10.671Z,15.19
2023-04-20T17:50:37.281Z,15.31
2023-04-20T17:53:03.887Z,15.47
2023-04-20T17:55:30.553Z,15.39
2023-04-20T17:57:57.167Z,15.29
2023-04-20T18:00:23.976Z,14.84
2023-04-20T18:02:50.794Z,14.71
2023-04-20T18:05:17.551Z,14.95
2023-04-20T18:07:44.935Z,14.62
2023-04-20T18:10:11.583Z,14.92
2023-04-20T18:12:38.346Z,14.55
2023-04-20T18:15:08.079Z,14.12
2023-04-20T18:17:35.084Z,14.05
2023-04-20T18:20:02.004Z,14.30
2023-04-20T18:22:28.628Z,14.29
2023-04-20T18:24:55.326Z,14.26
2023-04-20T18:27:21.958Z,14.54
2023-04-20T18:29:48.567Z,14.26
2023-04-20T18:32:15.189Z,14.30
2023-04-20T18:34:41.967Z,14.25
2023-04-20T18:37:08.563Z,14.08
2023-04-20T18:39:35.356Z,14.25
2023-04-20T18:42:01.954Z,14.48
2023-04-20T18:44:28.649Z,14.22
2023-04-20T18:46:55.627Z,14.39
2023-04-20T18:49:22.414Z,14.48
2023-04-20T18:51:49.027Z,14.33
2023-04-20T18:54:15.755Z,14.70
2023-04-20T18:56:42.504Z,14.82
2023-04-20T18:59:09.317Z,14.58
2023-04-20T19:01:36.340Z,14.59
2023-04-20T19:04:04.485Z,14.37
2023-04-20T19:06:31.184Z,14.30
2023-04-20T19:08:57.852Z,14.53
2023-04-20T19:11:24.576Z,14.46
2023-04-20T19:13:51.252Z,14.46
2023-04-20T19:16:17.869Z,14.32
2023-04-20T19:18:44.556Z,14.06
2023-04-20T19:21:11.149Z,14.15
2023-04-20T19:23:37.773Z,14.13
2023-04-20T19:26:04.494Z,14.24
2023-04-20T19:28:31.113Z,14.03
2023-04-20T19:30:58.297Z,14.16
2023-04-20T19:33:25.094Z,14.02
2023-04-20T19:35:51.833Z,14.17
2023-04-20T19:38:22.285Z,13.92
2023-04-20T19:40:48.958Z,14.26
2023-04-20T19:43:15.561Z,13.90
2023-04-20T19:45:42.304Z,13.98
2023-04-20T19:48:09.054Z,13.80
2023-04-20T19:50:35.756Z,13.86
2023-04-20T19:53:02.410Z,13.80
2023-04-20T19:55:29.160Z,13.97
2023-04-20T19:57:55.828Z,14.14
2023-04-20T20:00:22.580Z,14.21
2023-04-20T20:02:49.223Z,14.09
2023-04-20T20:05:16.135Z,14.09
2023-04-20T20:07:42.838Z,13.81
2023-04-20T20:10:09.867Z,13.80
2023-04-20T20:12:36.574Z,13.74
2023-04-20T20:15:03.388Z,13.78
2023-04-20T20:17:30.108Z,13.49
2023-04-20T20:19:56.737Z,13.52
2023-04-20T20:22:23.388Z,13.51
2023-04-20T20:24:50.058Z,13.45
2023-04-20T20:27:16.657Z,13.36
2023-04-20T20:29:43.325Z,13.31
2023-04-20T20:32:09.970Z,13.32
2023-04-20T20:34:36.598Z,13.27
2023-04-20T20:37:03.285Z,13.40
2023-04-20T20:39:30.985Z,13.26
2023-04-20T20:41:57.720Z,13.49
2023-04-20T20:44:24.344Z,13.27
2023-04-20T20:46:50.960Z,12.99
2023-04-20T20:49:17.920Z,12.87
2023-04-20T20:51:44.887Z,12.79
2023-04-20T20:54:11.501Z,12.95
2023-04-20T20:56:38.113Z,12.69
2023-04-20T20:59:04.860Z,12.75
2023-04-20T21:01:31.530Z,12.50
2023-04-20T21:03:58.373Z,12.56
2023-04-20T21:06:25.188Z,12.42
2023-04-20T21:08:51.787Z,12.36
2023-04-20T21:11:18.501Z,12.29
2023-04-20T21:13:45.150Z,12.34
2023-04-20T21:16:11.824Z,12.27
2023-04-20T21:18:38.695Z,12.20
2023-04-20T21:21:05.477Z,12.14
2023-04-20T21:23:32.180Z,12.05
2023-04-20T21:25:58.789Z,12.04
2023-04-20T21:28:25.565Z,12.11
2023-04-20T21:30:52.201Z,12.06
2023-04-20T21:33:18.930Z,12.06
2023-04-20T21:35:45.707Z,11.89
2023-04-20T21:38:12.458Z,11.88
2023-04-20T21:40:39.068Z,11.80
2023-04-20T21:43:05.688Z,11.79
2023-04-20T21:45:32.375Z,11.65
2023-04-20T21:47:59.001Z,11.67
2023-04-20T21:50:25.637Z,11.57
2023-04-20T21:52:53.532Z,11.60
2023-04-20T21:55:20.567Z,11.75
2023-04-20T21:57:47.354Z,11.76
2023-04-20T22:00:14.179Z,11.73
2023-04-20T22:02:41.158Z,11.62
2023-04-20T22:05:08.131Z,11.37
2023-04-20T22:07:34.768Z,11.28
2023-04-20T22:10:01.528Z,11.35
2023-04-20T22:12:38.479Z,11.28
2023-04-20T22:15:11.173Z,11.25
2023-04-20T22:17:38.055Z,11.20
2023-04-20T22:20:06.763Z,10.98
2023-04-20T22:22:34.134Z,10.94
2023-04-20T22:25:01.656Z,10.88
2023-04-20T22:27:28.447Z,10.52
2023-04-20T22:29:55.075Z,10.58
2023-04-20T22:32:21.980Z,10.61
2023-04-20T22:34:48.624Z,10.55
2023-04-20T22:37:15.366Z,10.64
2023-04-20T22:39:42.048Z,10.70
2023-04-20T22:42:08.675Z,10.44
2023-04-20T22:44:35.358Z,10.43
2023-04-20T22:47:02.178Z,10.59
2023-04-20T22:49:28.863Z,10.37
2023-04-20T22:51:55.473Z,10.28
2023-04-20T22:54:22.115Z,10.59
2023-04-20T22:56:48.681Z,10.59
2023-04-20T22:59:15.523Z,10.57
2023-04-20T23:01:42.218Z,10.35
2023-04-20T23:04:09.266Z,10.16
2023-04-20T23:06:36.050Z,10.24
2023-04-20T23:09:02.766Z,10.09
2023-04-20T23:11:29.478Z,10.07
2023-04-20T23:13:56.102Z,10.15
2023-04-20T23:16:22.694Z,10.15
2023-04-20T23:18:49.500Z,10.13
2023-04-20T23:21:16.094Z,10.21
2023-04-20T23:23:42.694Z,10.19
2023-04-20T23:26:09.342Z,9.97
2023-04-20T23:28:35.974Z,10.37
2023-04-20T23:31:02.588Z,10.03
2023-04-20T23:33:29.237Z,9.80
2023-04-20T23:35:58.468Z,9.75
2023-04-20T23:38:25.296Z,9.80
2023-04-20T23:40:52.213Z,9.76
2023-04-20T23:43:18.838Z,9.87
2023-04-20T23:45:45.507Z,9.82
2023-04-20T23:48:12.120Z,9.76
2023-04-20T23:50:38.749Z,9.66
2023-04-20T23:53:05.372Z,9.59
2023-04-20T23:55:32.500Z,9.80
2023-04-20T23:57:59.115Z,9.63
